sensor_id;sensor_type;location;lat;lon;timestamp;P1;durP1;ratioP1;P2;durP2;ratioP2
51459;SDS011;37534;39.772;2.718;2022-07-18T00:01:35;5.50;;;4.35;;
51459;SDS011;37534;39.772;2.718;2022-07-18T00:04:01;5.13;;;4.40;;
51459;SDS011;37534;39.772;2.718;2022-07-18T00:06:27;8.73;;;4.68;;
51459;SDS011;37534;39.772;2.718;2022-07-18T00:08:52;5.05;;;4.63;;
51459;SDS011;37534;39.772;2.718;2022-07-18T00:11:19;5.10;;;4.07;;
51459;SDS011;37534;39.772;2.718;2022-07-18T00:13:45;4.80;;;4.28;;
51459;SDS011;37534;39.772;2.718;2022-07-18T00:16:11;4.82;;;4.43;;
51459;SDS011;37534;39.772;2.718;2022-07-18T00:18:37;9.05;;;4.18;;
51459;SDS011;37534;39.772;2.718;2022-07-18T00:21:03;5.10;;;4.70;;
51459;SDS011;37534;39.772;2.718;2022-07-18T00:23:28;7.03;;;4.38;;
51459;SDS011;37534;39.772;2.718;2022-07-18T00:25:54;4.38;;;3.65;;
51459;SDS011;37534;39.772;2.718;2022-07-18T00:28:19;4.63;;;4.32;;
51459;SDS011;37534;39.772;2.718;2022-07-18T00:30:45;4.63;;;4.22;;
51459;SDS011;37534;39.772;2.718;2022-07-18T00:33:11;11.23;;;4.53;;
51459;SDS011;37534;39.772;2.718;2022-07-18T00:35:36;5.32;;;4.32;;
51459;SDS011;37534;39.772;2.718;2022-07-18T00:38:03;5.90;;;4.57;;
51459;SDS011;37534;39.772;2.718;2022-07-18T00:40:29;5.53;;;4.18;;
51459;SDS011;37534;39.772;2.718;2022-07-18T00:42:55;4.55;;;4.15;;
51459;SDS011;37534;39.772;2.718;2022-07-18T00:45:21;4.97;;;4.45;;
51459;SDS011;37534;39.772;2.718;2022-07-18T00:47:47;4.15;;;3.85;;
51459;SDS011;37534;39.772;2.718;2022-07-18T00:50:17;6.78;;;4.85;;
51459;SDS011;37534;39.772;2.718;2022-07-18T00:52:44;4.32;;;4.03;;
51459;SDS011;37534;39.772;2.718;2022-07-18T00:55:10;6.95;;;3.65;;
51459;SDS011;37534;39.772;2.718;2022-07-18T00:57:36;5.97;;;5.22;;
51459;SDS011;37534;39.772;2.718;2022-07-18T01:00:08;5.43;;;4.10;;
51459;SDS011;37534;39.772;2.718;2022-07-18T01:02:56;4.80;;;4.25;;
51459;SDS011;37534;39.772;2.718;2022-07-18T01:05:23;5.75;;;5.22;;
51459;SDS011;37534;39.772;2.718;2022-07-18T01:07:49;6.25;;;4.47;;
51459;SDS011;37534;39.772;2.718;2022-07-18T01:10:16;5.68;;;5.18;;
51459;SDS011;37534;39.772;2.718;2022-07-18T01:12:43;7.78;;;4.85;;
51459;SDS011;37534;39.772;2.718;2022-07-18T01:15:09;5.43;;;4.90;;
51459;SDS011;37534;39.772;2.718;2022-07-18T01:17:35;6.97;;;5.22;;
51459;SDS011;37534;39.772;2.718;2022-07-18T01:20:02;5.60;;;4.28;;
51459;SDS011;37534;39.772;2.718;2022-07-18T01:22:28;5.25;;;4.75;;
51459;SDS011;37534;39.772;2.718;2022-07-18T01:24:54;6.10;;;4.75;;
51459;SDS011;37534;39.772;2.718;2022-07-18T01:27:20;4.80;;;4.40;;
51459;SDS011;37534;39.772;2.718;2022-07-18T01:29:47;6.00;;;5.32;;
51459;SDS011;37534;39.772;2.718;2022-07-18T01:57:04;5.65;;;5.10;;
51459;SDS011;37534;39.772;2.718;2022-07-18T01:59:31;6.80;;;4.78;;
51459;SDS011;37534;39.772;2.718;2022-07-18T02:01:57;5.85;;;5.10;;
51459;SDS011;37534;39.772;2.718;2022-07-18T02:04:23;5.53;;;5.00;;
51459;SDS011;37534;39.772;2.718;2022-07-18T02:07:09;4.75;;;4.18;;
51459;SDS011;37534;39.772;2.718;2022-07-18T02:09:34;7.93;;;4.63;;
51459;SDS011;37534;39.772;2.718;2022-07-18T02:12:00;6.00;;;5.10;;
51459;SDS011;37534;39.772;2.718;2022-07-18T02:14:25;4.85;;;4.32;;
51459;SDS011;37534;39.772;2.718;2022-07-18T02:16:51;5.45;;;4.90;;
51459;SDS011;37534;39.772;2.718;2022-07-18T02:19:16;7.15;;;4.72;;
51459;SDS011;37534;39.772;2.718;2022-07-18T02:21:42;5.03;;;4.50;;
51459;SDS011;37534;39.772;2.718;2022-07-18T02:24:09;5.50;;;4.95;;
51459;SDS011;37534;39.772;2.718;2022-07-18T02:26:34;11.82;;;5.03;;
51459;SDS011;37534;39.772;2.718;2022-07-18T02:29:01;4.63;;;4.18;;
51459;SDS011;37534;39.772;2.718;2022-07-18T02:31:26;4.72;;;4.35;;
51459;SDS011;37534;39.772;2.718;2022-07-18T02:33:52;5.18;;;4.65;;
51459;SDS011;37534;39.772;2.718;2022-07-18T02:36:17;5.18;;;4.75;;
51459;SDS011;37534;39.772;2.718;2022-07-18T02:38:43;5.22;;;4.75;;
51459;SDS011;37534;39.772;2.718;2022-07-18T02:41:09;6.18;;;5.57;;
51459;SDS011;37534;39.772;2.718;2022-07-18T02:43:34;8.32;;;5.43;;
51459;SDS011;37534;39.772;2.718;2022-07-18T02:46:00;4.85;;;4.40;;
51459;SDS011;37534;39.772;2.718;2022-07-18T02:48:28;4.53;;;4.15;;
51459;SDS011;37534;39.772;2.718;2022-07-18T02:50:53;6.03;;;5.43;;
51459;SDS011;37534;39.772;2.718;2022-07-18T02:53:19;6.28;;;5.68;;
51459;SDS011;37534;39.772;2.718;2022-07-18T02:55:47;5.65;;;5.25;;
51459;SDS011;37534;39.772;2.718;2022-07-18T02:58:12;7.60;;;5.00;;
51459;SDS011;37534;39.772;2.718;2022-07-18T03:00:38;6.05;;;4.35;;
51459;SDS011;37534;39.772;2.718;2022-07-18T03:03:03;5.22;;;4.72;;
51459;SDS011;37534;39.772;2.718;2022-07-18T03:05:29;5.80;;;5.20;;
51459;SDS011;37534;39.772;2.718;2022-07-18T03:07:55;5.82;;;5.32;;
51459;SDS011;37534;39.772;2.718;2022-07-18T03:10:20;5.32;;;4.90;;
51459;SDS011;37534;39.772;2.718;2022-07-18T03:12:46;10.63;;;4.95;;
51459;SDS011;37534;39.772;2.718;2022-07-18T03:15:11;5.35;;;4.82;;
51459;SDS011;37534;39.772;2.718;2022-07-18T03:17:37;5.35;;;4.60;;
51459;SDS011;37534;39.772;2.718;2022-07-18T03:20:03;5.70;;;5.20;;
51459;SDS011;37534;39.772;2.718;2022-07-18T03:22:29;5.45;;;4.50;;
51459;SDS011;37534;39.772;2.718;2022-07-18T03:24:54;5.60;;;5.10;;
51459;SDS011;37534;39.772;2.718;2022-07-18T03:27:20;6.07;;;5.55;;
51459;SDS011;37534;39.772;2.718;2022-07-18T03:29:45;5.30;;;4.80;;
51459;SDS011;37534;39.772;2.718;2022-07-18T03:32:11;6.32;;;5.05;;
51459;SDS011;37534;39.772;2.718;2022-07-18T03:34:36;6.80;;;4.50;;
51459;SDS011;37534;39.772;2.718;2022-07-18T03:37:02;7.03;;;4.90;;
51459;SDS011;37534;39.772;2.718;2022-07-18T03:39:28;9.00;;;5.47;;
51459;SDS011;37534;39.772;2.718;2022-07-18T03:41:53;9.73;;;5.28;;
51459;SDS011;37534;39.772;2.718;2022-07-18T03:44:19;14.63;;;5.35;;
51459;SDS011;37534;39.772;2.718;2022-07-18T03:46:44;5.95;;;5.45;;
51459;SDS011;37534;39.772;2.718;2022-07-18T03:49:10;6.05;;;5.30;;
51459;SDS011;37534;39.772;2.718;2022-07-18T03:51:36;5.35;;;4.95;;
51459;SDS011;37534;39.772;2.718;2022-07-18T03:54:01;8.57;;;5.97;;
51459;SDS011;37534;39.772;2.718;2022-07-18T03:56:28;5.47;;;4.97;;
51459;SDS011;37534;39.772;2.718;2022-07-18T03:58:54;5.72;;;5.22;;
51459;SDS011;37534;39.772;2.718;2022-07-18T04:01:19;6.00;;;4.63;;
51459;SDS011;37534;39.772;2.718;2022-07-18T04:03:45;8.88;;;5.18;;
51459;SDS011;37534;39.772;2.718;2022-07-18T04:06:10;7.70;;;6.93;;
51459;SDS011;37534;39.772;2.718;2022-07-18T04:08:37;12.10;;;7.55;;
51459;SDS011;37534;39.772;2.718;2022-07-18T04:11:03;6.53;;;5.90;;
51459;SDS011;37534;39.772;2.718;2022-07-18T04:13:28;7.15;;;6.45;;
51459;SDS011;37534;39.772;2.718;2022-07-18T04:15:54;7.10;;;5.43;;
51459;SDS011;37534;39.772;2.718;2022-07-18T04:18:20;6.00;;;5.47;;
51459;SDS011;37534;39.772;2.718;2022-07-18T04:20:45;7.03;;;5.80;;
51459;SDS011;37534;39.772;2.718;2022-07-18T04:23:11;5.68;;;5.10;;
51459;SDS011;37534;39.772;2.718;2022-07-18T04:25:40;5.97;;;5.47;;
51459;SDS011;37534;39.772;2.718;2022-07-18T04:28:08;6.82;;;4.65;;
51459;SDS011;37534;39.772;2.718;2022-07-18T04:30:35;6.15;;;5.65;;
51459;SDS011;37534;39.772;2.718;2022-07-18T04:33:05;5.30;;;4.90;;
51459;SDS011;37534;39.772;2.718;2022-07-18T04:35:32;5.30;;;4.90;;
51459;SDS011;37534;39.772;2.718;2022-07-18T04:38:01;9.27;;;5.63;;
51459;SDS011;37534;39.772;2.718;2022-07-18T04:40:27;6.07;;;5.55;;
51459;SDS011;37534;39.772;2.718;2022-07-18T04:42:53;6.07;;;5.47;;
51459;SDS011;37534;39.772;2.718;2022-07-18T04:45:19;5.38;;;4.88;;
51459;SDS011;37534;39.772;2.718;2022-07-18T04:47:47;8.68;;;5.40;;
51459;SDS011;37534;39.772;2.718;2022-07-18T04:50:14;6.75;;;5.60;;
51459;SDS011;37534;39.772;2.718;2022-07-18T04:52:42;16.42;;;6.20;;
51459;SDS011;37534;39.772;2.718;2022-07-18T04:55:10;6.93;;;5.40;;
51459;SDS011;37534;39.772;2.718;2022-07-18T04:57:37;8.32;;;6.07;;
51459;SDS011;37534;39.772;2.718;2022-07-18T05:00:04;13.75;;;6.25;;
51459;SDS011;37534;39.772;2.718;2022-07-18T05:02:33;9.35;;;6.68;;
51459;SDS011;37534;39.772;2.718;2022-07-18T05:04:59;10.43;;;5.45;;
51459;SDS011;37534;39.772;2.718;2022-07-18T05:07:24;7.45;;;5.22;;
51459;SDS011;37534;39.772;2.718;2022-07-18T05:09:50;10.32;;;6.05;;
51459;SDS011;37534;39.772;2.718;2022-07-18T05:12:15;9.10;;;5.63;;
51459;SDS011;37534;39.772;2.718;2022-07-18T05:14:43;8.60;;;5.97;;
51459;SDS011;37534;39.772;2.718;2022-07-18T05:17:09;10.10;;;7.03;;
51459;SDS011;37534;39.772;2.718;2022-07-18T05:19:38;10.43;;;6.72;;
51459;SDS011;37534;39.772;2.718;2022-07-18T05:22:03;9.57;;;6.60;;
51459;SDS011;37534;39.772;2.718;2022-07-18T05:24:29;6.97;;;6.07;;
51459;SDS011;37534;39.772;2.718;2022-07-18T05:26:54;15.38;;;6.10;;
51459;SDS011;37534;39.772;2.718;2022-07-18T05:29:21;11.18;;;6.22;;
51459;SDS011;37534;39.772;2.718;2022-07-18T05:31:46;8.18;;;6.75;;
51459;SDS011;37534;39.772;2.718;2022-07-18T05:34:12;8.60;;;6.40;;
51459;SDS011;37534;39.772;2.718;2022-07-18T05:36:38;7.57;;;5.57;;
51459;SDS011;37534;39.772;2.718;2022-07-18T05:39:03;6.90;;;5.72;;
51459;SDS011;37534;39.772;2.718;2022-07-18T05:41:29;9.95;;;5.95;;
51459;SDS011;37534;39.772;2.718;2022-07-18T05:43:55;7.30;;;4.97;;
51459;SDS011;37534;39.772;2.718;2022-07-18T05:46:20;6.18;;;5.55;;
51459;SDS011;37534;39.772;2.718;2022-07-18T05:48:47;5.93;;;5.28;;
51459;SDS011;37534;39.772;2.718;2022-07-18T05:51:14;6.07;;;5.13;;
51459;SDS011;37534;39.772;2.718;2022-07-18T05:53:39;8.95;;;5.75;;
51459;SDS011;37534;39.772;2.718;2022-07-18T05:56:05;6.70;;;5.50;;
51459;SDS011;37534;39.772;2.718;2022-07-18T05:58:31;15.00;;;5.82;;
51459;SDS011;37534;39.772;2.718;2022-07-18T06:00:56;6.05;;;5.55;;
51459;SDS011;37534;39.772;2.718;2022-07-18T06:03:23;13.00;;;5.65;;
51459;SDS011;37534;39.772;2.718;2022-07-18T06:05:49;6.25;;;5.63;;
51459;SDS011;37534;39.772;2.718;2022-07-18T06:08:14;8.43;;;5.85;;
51459;SDS011;37534;39.772;2.718;2022-07-18T06:10:40;8.90;;;5.97;;
51459;SDS011;37534;39.772;2.718;2022-07-18T06:13:06;5.70;;;4.95;;
51459;SDS011;37534;39.772;2.718;2022-07-18T06:15:31;5.93;;;5.15;;
51459;SDS011;37534;39.772;2.718;2022-07-18T06:17:57;20.70;;;6.00;;
51459;SDS011;37534;39.772;2.718;2022-07-18T06:20:22;7.65;;;5.53;;
51459;SDS011;37534;39.772;2.718;2022-07-18T06:22:48;11.98;;;5.22;;
51459;SDS011;37534;39.772;2.718;2022-07-18T06:25:14;5.82;;;5.25;;
51459;SDS011;37534;39.772;2.718;2022-07-18T06:27:40;8.55;;;5.75;;
51459;SDS011;37534;39.772;2.718;2022-07-18T06:30:05;9.20;;;5.10;;
51459;SDS011;37534;39.772;2.718;2022-07-18T06:32:33;6.68;;;5.10;;
51459;SDS011;37534;39.772;2.718;2022-07-18T06:34:59;9.07;;;5.70;;
51459;SDS011;37534;39.772;2.718;2022-07-18T06:37:24;7.20;;;5.18;;
51459;SDS011;37534;39.772;2.718;2022-07-18T06:39:50;6.38;;;4.50;;
51459;SDS011;37534;39.772;2.718;2022-07-18T06:42:16;20.52;;;5.63;;
51459;SDS011;37534;39.772;2.718;2022-07-18T06:44:41;15.10;;;5.05;;
51459;SDS011;37534;39.772;2.718;2022-07-18T06:47:07;6.28;;;5.28;;
51459;SDS011;37534;39.772;2.718;2022-07-18T06:49:32;5.47;;;5.00;;
51459;SDS011;37534;39.772;2.718;2022-07-18T06:51:58;7.72;;;5.45;;
51459;SDS011;37534;39.772;2.718;2022-07-18T06:54:23;5.80;;;4.97;;
51459;SDS011;37534;39.772;2.718;2022-07-18T06:56:53;7.22;;;5.50;;
51459;SDS011;37534;39.772;2.718;2022-07-18T06:59:19;6.00;;;4.03;;
51459;SDS011;37534;39.772;2.718;2022-07-18T07:01:45;5.18;;;4.75;;
51459;SDS011;37534;39.772;2.718;2022-07-18T07:04:11;6.22;;;5.72;;
51459;SDS011;37534;39.772;2.718;2022-07-18T07:06:36;6.63;;;5.75;;
51459;SDS011;37534;39.772;2.718;2022-07-18T07:09:04;6.28;;;4.78;;
51459;SDS011;37534;39.772;2.718;2022-07-18T07:11:29;5.38;;;4.97;;
51459;SDS011;37534;39.772;2.718;2022-07-18T07:13:55;8.73;;;4.70;;
51459;SDS011;37534;39.772;2.718;2022-07-18T07:16:21;5.55;;;4.88;;
51459;SDS011;37534;39.772;2.718;2022-07-18T07:18:46;4.65;;;4.20;;
51459;SDS011;37534;39.772;2.718;2022-07-18T07:21:13;4.95;;;4.55;;
51459;SDS011;37534;39.772;2.718;2022-07-18T07:23:39;5.95;;;4.22;;
51459;SDS011;37534;39.772;2.718;2022-07-18T07:26:06;18.90;;;5.82;;
51459;SDS011;37534;39.772;2.718;2022-07-18T07:28:33;10.60;;;4.40;;
51459;SDS011;37534;39.772;2.718;2022-07-18T07:30:58;5.47;;;4.30;;
51459;SDS011;37534;39.772;2.718;2022-07-18T07:33:24;5.18;;;3.90;;
51459;SDS011;37534;39.772;2.718;2022-07-18T07:35:50;6.93;;;4.68;;
51459;SDS011;37534;39.772;2.718;2022-07-18T07:38:15;5.97;;;4.32;;
51459;SDS011;37534;39.772;2.718;2022-07-18T07:40:45;4.50;;;3.50;;
51459;SDS011;37534;39.772;2.718;2022-07-18T07:43:12;5.15;;;3.92;;
51459;SDS011;37534;39.772;2.718;2022-07-18T07:45:39;3.67;;;3.38;;
51459;SDS011;37534;39.772;2.718;2022-07-18T07:48:05;4.22;;;3.47;;
51459;SDS011;37534;39.772;2.718;2022-07-18T07:50:32;4.90;;;3.80;;
51459;SDS011;37534;39.772;2.718;2022-07-18T07:52:57;5.00;;;3.72;;
51459;SDS011;37534;39.772;2.718;2022-07-18T07:55:23;4.90;;;3.50;;
51459;SDS011;37534;39.772;2.718;2022-07-18T07:57:49;4.28;;;3.80;;
51459;SDS011;37534;39.772;2.718;2022-07-18T08:00:14;8.13;;;4.95;;
51459;SDS011;37534;39.772;2.718;2022-07-18T08:02:50;11.38;;;4.82;;
51459;SDS011;37534;39.772;2.718;2022-07-18T08:05:20;6.70;;;4.55;;
51459;SDS011;37534;39.772;2.718;2022-07-18T08:07:46;4.18;;;3.88;;
51459;SDS011;37534;39.772;2.718;2022-07-18T08:10:12;4.72;;;4.15;;
51459;SDS011;37534;39.772;2.718;2022-07-18T08:12:38;4.40;;;4.00;;
51459;SDS011;37534;39.772;2.718;2022-07-18T08:15:03;3.47;;;3.15;;
51459;SDS011;37534;39.772;2.718;2022-07-18T08:17:29;4.15;;;3.75;;
51459;SDS011;37534;39.772;2.718;2022-07-18T08:19:55;5.10;;;4.45;;
51459;SDS011;37534;39.772;2.718;2022-07-18T08:22:21;6.20;;;4.53;;
51459;SDS011;37534;39.772;2.718;2022-07-18T08:24:46;6.70;;;3.75;;
51459;SDS011;37534;39.772;2.718;2022-07-18T08:27:12;13.48;;;4.15;;
51459;SDS011;37534;39.772;2.718;2022-07-18T08:29:38;4.70;;;4.20;;
51459;SDS011;37534;39.772;2.718;2022-07-18T08:32:04;4.38;;;3.65;;
51459;SDS011;37534;39.772;2.718;2022-07-18T08:34:29;3.60;;;3.05;;
51459;SDS011;37534;39.772;2.718;2022-07-18T08:36:55;6.13;;;3.65;;
51459;SDS011;37534;39.772;2.718;2022-07-18T08:39:21;3.78;;;3.33;;
51459;SDS011;37534;39.772;2.718;2022-07-18T08:41:46;4.70;;;3.80;;
51459;SDS011;37534;39.772;2.718;2022-07-18T08:44:15;4.95;;;3.28;;
51459;SDS011;37534;39.772;2.718;2022-07-18T08:46:41;3.92;;;3.53;;
51459;SDS011;37534;39.772;2.718;2022-07-18T08:49:13;3.28;;;2.97;;
51459;SDS011;37534;39.772;2.718;2022-07-18T08:51:40;4.20;;;3.65;;
51459;SDS011;37534;39.772;2.718;2022-07-18T08:54:07;4.82;;;4.22;;
51459;SDS011;37534;39.772;2.718;2022-07-18T08:56:33;7.45;;;3.90;;
51459;SDS011;37534;39.772;2.718;2022-07-18T08:59:02;4.00;;;3.20;;
51459;SDS011;37534;39.772;2.718;2022-07-18T09:01:31;3.80;;;3.50;;
51459;SDS011;37534;39.772;2.718;2022-07-18T09:03:57;4.00;;;3.22;;
51459;SDS011;37534;39.772;2.718;2022-07-18T09:06:43;3.78;;;3.47;;
51459;SDS011;37534;39.772;2.718;2022-07-18T09:09:17;4.50;;;3.63;;
51459;SDS011;37534;39.772;2.718;2022-07-18T09:11:54;3.85;;;3.00;;
51459;SDS011;37534;39.772;2.718;2022-07-18T09:17:00;4.80;;;3.00;;
51459;SDS011;37534;39.772;2.718;2022-07-18T09:19:27;3.20;;;2.88;;
51459;SDS011;37534;39.772;2.718;2022-07-18T09:21:52;5.65;;;3.58;;
51459;SDS011;37534;39.772;2.718;2022-07-18T09:24:18;3.72;;;3.40;;
51459;SDS011;37534;39.772;2.718;2022-07-18T09:26:44;4.22;;;3.10;;
51459;SDS011;37534;39.772;2.718;2022-07-18T09:29:15;3.35;;;3.05;;
51459;SDS011;37534;39.772;2.718;2022-07-18T09:31:48;6.47;;;3.15;;
51459;SDS011;37534;39.772;2.718;2022-07-18T09:34:15;6.28;;;3.42;;
51459;SDS011;37534;39.772;2.718;2022-07-18T09:36:57;4.70;;;3.10;;
51459;SDS011;37534;39.772;2.718;2022-07-18T09:39:23;2.92;;;2.60;;
51459;SDS011;37534;39.772;2.718;2022-07-18T09:41:48;3.30;;;2.65;;
51459;SDS011;37534;39.772;2.718;2022-07-18T09:44:15;2.85;;;2.63;;
51459;SDS011;37534;39.772;2.718;2022-07-18T09:49:32;15.02;;;3.22;;
51459;SDS011;37534;39.772;2.718;2022-07-18T09:52:03;4.32;;;2.92;;
51459;SDS011;37534;39.772;2.718;2022-07-18T09:54:40;4.82;;;2.42;;
51459;SDS011;37534;39.772;2.718;2022-07-18T09:57:07;3.40;;;3.00;;
51459;SDS011;37534;39.772;2.718;2022-07-18T09:59:34;4.53;;;2.92;;
51459;SDS011;37534;39.772;2.718;2022-07-18T10:02:02;3.10;;;2.80;;
51459;SDS011;37534;39.772;2.718;2022-07-18T10:04:28;2.53;;;2.33;;
51459;SDS011;37534;39.772;2.718;2022-07-18T10:06:55;2.88;;;2.60;;
51459;SDS011;37534;39.772;2.718;2022-07-18T10:09:20;6.50;;;2.75;;
51459;SDS011;37534;39.772;2.718;2022-07-18T10:11:46;5.43;;;2.53;;
51459;SDS011;37534;39.772;2.718;2022-07-18T10:14:12;3.95;;;3.10;;
51459;SDS011;37534;39.772;2.718;2022-07-18T10:16:38;3.58;;;3.05;;
51459;SDS011;37534;39.772;2.718;2022-07-18T10:19:04;4.90;;;3.00;;
51459;SDS011;37534;39.772;2.718;2022-07-18T10:21:29;3.42;;;3.10;;
51459;SDS011;37534;39.772;2.718;2022-07-18T10:23:56;7.65;;;3.45;;
51459;SDS011;37534;39.772;2.718;2022-07-18T10:26:26;5.70;;;3.20;;
51459;SDS011;37534;39.772;2.718;2022-07-18T10:31:28;5.68;;;3.35;;
51459;SDS011;37534;39.772;2.718;2022-07-18T10:39:10;4.22;;;2.85;;
51459;SDS011;37534;39.772;2.718;2022-07-18T10:57:35;3.33;;;3.08;;
51459;SDS011;37534;39.772;2.718;2022-07-18T11:01:02;7.22;;;3.75;;
51459;SDS011;37534;39.772;2.718;2022-07-18T11:05:41;3.05;;;2.75;;
51459;SDS011;37534;39.772;2.718;2022-07-18T11:13:22;2.40;;;2.28;;
51459;SDS011;37534;39.772;2.718;2022-07-18T11:15:56;3.60;;;3.30;;
51459;SDS011;37534;39.772;2.718;2022-07-18T11:23:54;4.07;;;3.42;;
51459;SDS011;37534;39.772;2.718;2022-07-18T11:26:26;3.40;;;3.10;;
51459;SDS011;37534;39.772;2.718;2022-07-18T11:29:03;3.50;;;3.20;;
51459;SDS011;37534;39.772;2.718;2022-07-18T11:31:31;3.42;;;2.80;;
51459;SDS011;37534;39.772;2.718;2022-07-18T11:34:00;12.88;;;3.80;;
51459;SDS011;37534;39.772;2.718;2022-07-18T11:36:31;3.78;;;3.15;;
51459;SDS011;37534;39.772;2.718;2022-07-18T11:38:58;2.58;;;2.38;;
51459;SDS011;37534;39.772;2.718;2022-07-18T11:41:26;3.10;;;2.85;;
51459;SDS011;37534;39.772;2.718;2022-07-18T11:43:53;4.53;;;3.40;;
51459;SDS011;37534;39.772;2.718;2022-07-18T11:46:21;5.85;;;3.00;;
51459;SDS011;37534;39.772;2.718;2022-07-18T11:48:49;7.38;;;2.80;;
51459;SDS011;37534;39.772;2.718;2022-07-18T11:51:23;4.53;;;3.33;;
51459;SDS011;37534;39.772;2.718;2022-07-18T11:53:50;7.90;;;3.65;;
51459;SDS011;37534;39.772;2.718;2022-07-18T11:56:17;3.38;;;3.08;;
51459;SDS011;37534;39.772;2.718;2022-07-18T11:58:46;3.22;;;2.85;;
51459;SDS011;37534;39.772;2.718;2022-07-18T12:01:15;4.55;;;3.03;;
51459;SDS011;37534;39.772;2.718;2022-07-18T12:03:43;10.00;;;3.40;;
51459;SDS011;37534;39.772;2.718;2022-07-18T12:06:12;3.60;;;2.85;;
51459;SDS011;37534;39.772;2.718;2022-07-18T12:08:44;3.22;;;3.03;;
51459;SDS011;37534;39.772;2.718;2022-07-18T12:11:27;2.97;;;2.67;;
51459;SDS011;37534;39.772;2.718;2022-07-18T12:14:00;6.43;;;3.10;;
51459;SDS011;37534;39.772;2.718;2022-07-18T12:19:03;6.05;;;3.40;;
51459;SDS011;37534;39.772;2.718;2022-07-18T12:21:44;5.40;;;2.63;;
51459;SDS011;37534;39.772;2.718;2022-07-18T12:30:00;3.30;;;2.75;;
51459;SDS011;37534;39.772;2.718;2022-07-18T12:32:30;4.18;;;2.80;;
51459;SDS011;37534;39.772;2.718;2022-07-18T12:35:00;2.97;;;2.67;;
51459;SDS011;37534;39.772;2.718;2022-07-18T12:37:26;7.50;;;3.28;;
51459;SDS011;37534;39.772;2.718;2022-07-18T12:39:58;2.78;;;2.58;;
51459;SDS011;37534;39.772;2.718;2022-07-18T12:42:27;7.93;;;3.38;;
51459;SDS011;37534;39.772;2.718;2022-07-18T12:44:56;3.78;;;3.08;;
51459;SDS011;37534;39.772;2.718;2022-07-18T12:47:22;4.22;;;2.70;;
51459;SDS011;37534;39.772;2.718;2022-07-18T12:49:48;4.97;;;3.35;;
51459;SDS011;37534;39.772;2.718;2022-07-18T12:52:14;4.25;;;3.20;;
51459;SDS011;37534;39.772;2.718;2022-07-18T12:54:39;3.45;;;3.15;;
51459;SDS011;37534;39.772;2.718;2022-07-18T12:57:05;2.58;;;2.25;;
51459;SDS011;37534;39.772;2.718;2022-07-18T12:59:30;3.40;;;2.92;;
51459;SDS011;37534;39.772;2.718;2022-07-18T13:01:56;3.13;;;2.67;;
51459;SDS011;37534;39.772;2.718;2022-07-18T13:04:22;3.25;;;2.92;;
51459;SDS011;37534;39.772;2.718;2022-07-18T13:06:47;3.15;;;2.90;;
51459;SDS011;37534;39.772;2.718;2022-07-18T13:09:13;8.23;;;3.13;;
51459;SDS011;37534;39.772;2.718;2022-07-18T13:11:38;3.88;;;3.08;;
51459;SDS011;37534;39.772;2.718;2022-07-18T13:14:05;4.70;;;2.75;;
51459;SDS011;37534;39.772;2.718;2022-07-18T13:16:31;5.75;;;3.03;;
51459;SDS011;37534;39.772;2.718;2022-07-18T13:18:57;7.18;;;2.97;;
51459;SDS011;37534;39.772;2.718;2022-07-18T13:21:22;4.10;;;3.40;;
51459;SDS011;37534;39.772;2.718;2022-07-18T13:23:48;4.60;;;3.17;;
51459;SDS011;37534;39.772;2.718;2022-07-18T13:26:13;3.10;;;2.80;;
51459;SDS011;37534;39.772;2.718;2022-07-18T13:28:39;6.63;;;3.22;;
51459;SDS011;37534;39.772;2.718;2022-07-18T13:31:05;4.80;;;3.25;;
51459;SDS011;37534;39.772;2.718;2022-07-18T13:33:30;5.28;;;3.45;;
51459;SDS011;37534;39.772;2.718;2022-07-18T13:35:57;3.33;;;2.55;;
51459;SDS011;37534;39.772;2.718;2022-07-18T13:38:22;4.13;;;2.92;;
51459;SDS011;37534;39.772;2.718;2022-07-18T13:40:48;5.03;;;2.83;;
51459;SDS011;37534;39.772;2.718;2022-07-18T13:43:14;4.15;;;3.45;;
51459;SDS011;37534;39.772;2.718;2022-07-18T13:45:39;15.77;;;3.75;;
51459;SDS011;37534;39.772;2.718;2022-07-18T13:48:05;3.30;;;3.03;;
51459;SDS011;37534;39.772;2.718;2022-07-18T13:50:30;5.38;;;3.47;;
51459;SDS011;37534;39.772;2.718;2022-07-18T13:52:56;4.38;;;3.05;;
51459;SDS011;37534;39.772;2.718;2022-07-18T13:55:22;7.88;;;2.65;;
51459;SDS011;37534;39.772;2.718;2022-07-18T13:57:47;5.75;;;3.00;;
51459;SDS011;37534;39.772;2.718;2022-07-18T14:00:13;3.78;;;2.72;;
51459;SDS011;37534;39.772;2.718;2022-07-18T14:02:39;5.90;;;3.42;;
51459;SDS011;37534;39.772;2.718;2022-07-18T14:05:05;2.97;;;2.75;;
51459;SDS011;37534;39.772;2.718;2022-07-18T14:07:31;4.00;;;2.65;;
51459;SDS011;37534;39.772;2.718;2022-07-18T14:09:56;2.45;;;2.25;;
51459;SDS011;37534;39.772;2.718;2022-07-18T14:12:22;3.95;;;2.40;;
51459;SDS011;37534;39.772;2.718;2022-07-18T14:14:47;11.40;;;3.05;;
51459;SDS011;37534;39.772;2.718;2022-07-18T14:17:13;2.83;;;2.63;;
51459;SDS011;37534;39.772;2.718;2022-07-18T14:19:38;4.90;;;2.97;;
51459;SDS011;37534;39.772;2.718;2022-07-18T14:22:04;3.13;;;2.85;;
51459;SDS011;37534;39.772;2.718;2022-07-18T14:24:30;11.93;;;3.08;;
51459;SDS011;37534;39.772;2.718;2022-07-18T14:26:55;2.67;;;2.45;;
51459;SDS011;37534;39.772;2.718;2022-07-18T14:29:21;5.28;;;3.13;;
51459;SDS011;37534;39.772;2.718;2022-07-18T14:31:46;3.70;;;2.80;;
51459;SDS011;37534;39.772;2.718;2022-07-18T14:34:12;4.55;;;3.30;;
51459;SDS011;37534;39.772;2.718;2022-07-18T14:36:37;3.60;;;2.95;;
51459;SDS011;37534;39.772;2.718;2022-07-18T14:39:03;3.90;;;2.80;;
51459;SDS011;37534;39.772;2.718;2022-07-18T14:41:28;3.28;;;2.97;;
51459;SDS011;37534;39.772;2.718;2022-07-18T14:43:55;3.00;;;2.60;;
51459;SDS011;37534;39.772;2.718;2022-07-18T14:46:20;6.22;;;3.20;;
51459;SDS011;37534;39.772;2.718;2022-07-18T14:48:46;3.08;;;2.80;;
51459;SDS011;37534;39.772;2.718;2022-07-18T14:51:13;3.33;;;3.03;;
51459;SDS011;37534;39.772;2.718;2022-07-18T14:53:39;4.32;;;2.90;;
51459;SDS011;37534;39.772;2.718;2022-07-18T14:56:04;4.38;;;3.13;;
51459;SDS011;37534;39.772;2.718;2022-07-18T14:58:30;7.07;;;2.90;;
51459;SDS011;37534;39.772;2.718;2022-07-18T15:00:55;3.35;;;2.80;;
51459;SDS011;37534;39.772;2.718;2022-07-18T15:03:21;5.38;;;2.80;;
51459;SDS011;37534;39.772;2.718;2022-07-18T15:05:47;3.33;;;3.03;;
51459;SDS011;37534;39.772;2.718;2022-07-18T15:08:12;3.78;;;3.40;;
51459;SDS011;37534;39.772;2.718;2022-07-18T15:10:38;4.82;;;3.10;;
51459;SDS011;37534;39.772;2.718;2022-07-18T15:13:03;3.00;;;2.75;;
51459;SDS011;37534;39.772;2.718;2022-07-18T15:15:29;3.20;;;2.92;;
51459;SDS011;37534;39.772;2.718;2022-07-18T15:17:54;4.85;;;2.80;;
51459;SDS011;37534;39.772;2.718;2022-07-18T15:20:20;3.05;;;2.53;;
51459;SDS011;37534;39.772;2.718;2022-07-18T15:22:45;3.92;;;2.80;;
51459;SDS011;37534;39.772;2.718;2022-07-18T15:25:11;3.55;;;2.90;;
51459;SDS011;37534;39.772;2.718;2022-07-18T15:27:36;4.30;;;3.38;;
51459;SDS011;37534;39.772;2.718;2022-07-18T15:30:03;6.35;;;3.78;;
51459;SDS011;37534;39.772;2.718;2022-07-18T15:32:29;3.97;;;3.08;;
51459;SDS011;37534;39.772;2.718;2022-07-18T15:34:54;5.18;;;2.80;;
51459;SDS011;37534;39.772;2.718;2022-07-18T15:37:20;7.05;;;3.90;;
51459;SDS011;37534;39.772;2.718;2022-07-18T15:39:45;6.43;;;3.38;;
51459;SDS011;37534;39.772;2.718;2022-07-18T15:42:11;3.65;;;3.33;;
51459;SDS011;37534;39.772;2.718;2022-07-18T15:44:36;3.35;;;3.05;;
51459;SDS011;37534;39.772;2.718;2022-07-18T15:47:05;5.45;;;3.55;;
51459;SDS011;37534;39.772;2.718;2022-07-18T15:49:32;4.45;;;3.55;;
51459;SDS011;37534;39.772;2.718;2022-07-18T15:51:59;3.40;;;3.05;;
51459;SDS011;37534;39.772;2.718;2022-07-18T15:54:25;5.68;;;3.63;;
51459;SDS011;37534;39.772;2.718;2022-07-18T15:56:50;3.47;;;3.20;;
51459;SDS011;37534;39.772;2.718;2022-07-18T15:59:16;3.72;;;3.42;;